• Join FlightAware (Why Join?)
  • Login
  • US Flag 
05:55AM EDT


 

Airport Tracker/Info


-or-


 

Live Flight TrackerFlight Track Log ✈ ASQ4633 ✈ 12-Jun-2013 ✈ KSLC - KDEN

Flight Track Log - Related Links

Times and Time Zones

All times are in EDT time to prevent confusion due to time zone crossing. See the ASQ4633 flight status page for this flight to view local times or setup timezone preferences in your user account.

Time Position Orientation Groundspeed Altitude Reporting Facility
EDT Latitude Longitude Course Direction KTS MPH feet Rate Location/Type
07:29PM 40.7517 -112.0178 103° East 191 220 6,000  Level Salt Lake Center
07:30PM 40.7736 -112.0892 292° West 268 308 6,800 1,500 Climbing Salt Lake Center
07:31PM 40.8311 -112.1631 316° Northwest 287 330 9,000 2,100 Climbing Salt Lake Center
07:32PM 41.0110 -112.1564 79° East  Level FlightAware Approximate
07:32PM 40.9022 -112.2136 332° Northwest 304 350 11,200  Level Salt Lake Center
07:33PM 40.9977 -112.0098 114° Southeast  Level FlightAware Approximate
07:33PM 40.9883 -112.1919 11° North 324 373 13,200  Level Salt Lake Center
07:34PM 40.9651 -111.8659 103° East  Level FlightAware Approximate
07:34PM 40.9972 -112.0811 84° East 322 371 14,800  Level Salt Lake Center
07:35PM 40.9386 -111.7205 103° East  Level FlightAware Approximate
07:35PM 40.9811 -111.9564 100° East 353 406 15,700  Level Salt Lake Center
07:36PM 40.9600 -111.7978 100° East 380 437 17,500 1,740 Climbing Salt Lake Center
07:37PM 40.9433 -111.6636 99° East 378 435 19,300 1,560 Climbing Salt Lake Center
07:38PM 40.9258 -111.5272 100° East 381 438 20,800 1,380 Climbing Salt Lake Center
07:39PM 40.9078 -111.3872 100° East 387 445 22,200 1,320 Climbing Salt Lake Center
07:40PM 40.8861 -111.2131 99° East 403 464 23,600 1,200 Climbing Salt Lake Center
07:42PM 40.8686 -111.0619 99° East 415 478 24,800 1,140 Climbing Salt Lake Center
07:43PM 40.8500 -110.9089 99° East 424 488 26,000 1,140 Climbing Salt Lake Center
07:44PM 40.8317 -110.7558 99° East 424 488 27,200 1,200 Climbing Salt Lake Center
07:45PM 40.8106 -110.5800 99° East 430 495 28,500 1,200 Climbing Salt Lake Center
07:46PM 40.7914 -110.4289 99° East 436 502 29,700 1,080 Climbing Salt Lake Center
07:47PM 40.7683 -110.2506 100° East 442 509 30,800 600 Climbing Salt Lake Center
07:48PM 40.7503 -110.1072 99° East 445 512 31,000 60 Climbing Salt Lake Center
07:49PM 40.7322 -109.9128 97° East 475 547 31,000  Level Salt Lake Center
07:50PM 40.7200 -109.7381 95° East 495 570 31,000  Level Salt Lake Center
07:51PM 40.7061 -109.5297 95° East 508 585 31,000  Level Salt Lake Center
07:52PM 40.6919 -109.3522 96° East 509 586 31,000  Level Salt Lake Center
07:53PM 40.6781 -109.1700 96° East 505 581 31,000  Level Salt Lake Center
07:54PM 40.6658 -108.9956 95° East 505 581 31,000  Level Denver Center
07:55PM 40.6519 -108.8169 96° East 510 587 31,000  Level Denver Center
07:56PM 40.6367 -108.6400 96° East 508 585 31,000  Level Denver Center
07:57PM 40.6206 -108.4325 96° East 508 585 31,000  Level Denver Center
07:58PM 40.6047 -108.2556 97° East 507 583 31,000  Level Denver Center
07:59PM 40.5867 -108.0517 97° East 503 579 31,000  Level Denver Center
08:00PM 40.5717 -107.8744 96° East 506 582 31,000  Level Denver Center
08:01PM 40.5500 -107.6369 97° East 511 588 31,000  Level Denver Center
08:02PM 40.5283 -107.3997 97° East 513 590 31,000  Level Denver Center
08:03PM 40.5158 -107.2214 95° East 512 589 31,000  Level Denver Center
08:04PM 40.5067 -107.0492 94° East 512 589 31,000  Level Denver Center
08:05PM 40.4961 -106.8622 94° East 511 588 31,000  Level Denver Center
08:06PM 40.4842 -106.6375 94° East 512 589 31,000  Level Denver Center
08:07PM 40.4725 -106.4497 95° East 509 586 31,000 -60 Level Denver Center
08:09PM 40.4608 -106.2736 95° East 506 582 30,900 -1,260 Descending Denver Center
08:10PM 40.4528 -106.0964 93° East 495 570 28,400 -2,520 Descending Denver Center
08:11PM 40.4356 -105.9239 97° East 480 552 25,800 -2,760 Descending Denver Center
08:12PM 40.4044 -105.7350 102° East 445 512 22,800 -2,460 Descending Denver Center
08:13PM 40.3819 -105.5919 102° East 407 468 20,800 -1,800 Descending Denver Center
08:14PM 40.3608 -105.4636 102° East 363 418 19,100 -1,560 Descending Denver Center
08:15PM 40.3567 -105.3231 92° East 353 406 17,600 -1,500 Descending Denver Center
08:16PM 40.3575 -105.1925 89° East 359 413 16,000 -1,260 Descending Denver Center
08:17PM 40.3594 -105.0825 89° East 306 352 15,100 -1,260 Descending Denver Center
08:18PM 40.3625 -104.9728 88° East 283 326 13,500 -1,380 Descending Denver Center
08:19PM 40.3606 -104.8747 91° East 273 314 12,300 -1,320 Descending Denver Center
08:20PM 40.3361 -104.7900 111° Southeast 254 292 10,900 -1,140 Descending Denver Center
08:21PM 40.2781 -104.7428 148° Southeast 232 267 10,000 -480 Descending Denver Center
08:22PM 40.2264 -104.7122 156° South 204 235 10,000  Level Denver Center
08:23PM 40.1694 -104.6825 158° South 203 234 10,000 -360 Level Denver Center
08:24PM 40.1150 -104.6850 182° South 185 213 9,300 -780 Descending Denver Center
08:25PM 40.0658 -104.6850 180° South 177 204 8,400 -960 Descending Denver Center
08:26PM 40.0114 -104.6853 180° South 180 207 7,400 -1,020 Descending Denver Center